createdAt,value
2023-05-28T00:04:19.824Z,99141.69
2023-05-28T00:10:51.287Z,99136.48
2023-05-28T00:17:24.422Z,99135.84
2023-05-28T00:23:13.300Z,99131.39
2023-05-28T00:29:14.626Z,99126.41
2023-05-28T00:36:07.933Z,99121.39
2023-05-28T00:42:25.078Z,99118.28
2023-05-28T00:48:27.097Z,99111.23
2023-05-28T00:55:03.373Z,99105.60
2023-05-28T01:01:42.451Z,99103.45
2023-05-28T01:07:49.083Z,99099.36
2023-05-28T01:13:41.997Z,99090.56
2023-05-28T01:20:20.911Z,99081.77
2023-05-28T01:27:10.464Z,99078.88
2023-05-28T01:33:44.446Z,99075.20
2023-05-28T01:40:19.895Z,99083.52
2023-05-28T01:47:04.915Z,99074.66
2023-05-28T01:54:07.824Z,99088.37
2023-05-28T02:01:10.898Z,99084.59
2023-05-28T02:08:03.257Z,99078.60
2023-05-28T02:15:05.104Z,99081.56
2023-05-28T02:22:08.232Z,99067.65
2023-05-28T02:29:11.054Z,99067.90
2023-05-28T02:36:04.479Z,99065.46
2023-05-28T02:43:09.681Z,99067.87
2023-05-28T02:49:12.202Z,99069.33
2023-05-28T02:56:15.671Z,99068.98
2023-05-28T03:02:41.143Z,99067.84
2023-05-28T03:09:28.763Z,99063.48
2023-05-28T03:16:24.713Z,99057.39
2023-05-28T03:23:27.943Z,99054.73
2023-05-28T03:30:26.495Z,99051.30
2023-05-28T03:37:13.752Z,99053.26
2023-05-28T03:44:05.092Z,99045.11
2023-05-28T03:50:00.254Z,99055.77
2023-05-28T03:56:46.119Z,99057.81
2023-05-28T04:03:13.860Z,99052.92
2023-05-28T04:09:04.564Z,99055.46
2023-05-28T04:15:25.814Z,99053.55
2023-05-28T04:22:02.066Z,99056.51
2023-05-28T04:28:42.975Z,99061.50
2023-05-28T04:34:24.953Z,99064.63
2023-05-28T04:40:40.913Z,99054.92
2023-05-28T04:47:25.813Z,99057.94
2023-05-28T04:54:25.363Z,99054.75
2023-05-28T05:01:13.745Z,99052.00
2023-05-28T05:08:07.406Z,99051.94
2023-05-28T05:14:10.954Z,99054.33
2023-05-28T05:20:07.984Z,99050.77
2023-05-28T05:27:10.912Z,99050.19
2023-05-28T05:34:14.028Z,99051.65
2023-05-28T05:41:16.798Z,99051.13
2023-05-28T05:47:41.821Z,99046.53
2023-05-28T05:54:18.477Z,99049.31
2023-05-28T05:59:53.626Z,99052.29
2023-05-28T06:05:28.455Z,99051.45
2023-05-28T06:12:20.447Z,99049.88
2023-05-28T06:18:53.053Z,99050.66
2023-05-28T06:25:18.952Z,99051.58
2023-05-28T06:31:56.808Z,99055.41
2023-05-28T06:38:39.653Z,99058.84
2023-05-28T06:45:35.421Z,99050.95
2023-05-28T06:50:56.889Z,99059.73
2023-05-28T06:55:59.626Z,99053.48
2023-05-28T07:01:53.310Z,99049.96
2023-05-28T07:07:43.182Z,99042.26
2023-05-28T07:13:52.974Z,99039.64
2023-05-28T07:19:37.185Z,99040.94
2023-05-28T07:26:39.934Z,99040.02
2023-05-28T07:32:55.935Z,99029.88
2023-05-28T07:38:15.600Z,99030.28
2023-05-28T07:44:39.129Z,99025.55
2023-05-28T07:50:24.428Z,99029.50
2023-05-28T07:57:07.738Z,99023.66
2023-05-28T08:02:59.013Z,99026.52
2023-05-28T08:09:41.876Z,99020.77
2023-05-28T08:16:45.382Z,99015.26
2023-05-28T08:23:11.175Z,99020.14
2023-05-28T08:28:53.164Z,99016.02
2023-05-28T08:34:36.456Z,99009.52
2023-05-28T08:40:45.161Z,99007.67
2023-05-28T08:47:29.105Z,99005.38
2023-05-28T08:53:19.859Z,99003.24
2023-05-28T08:59:22.669Z,99004.66
2023-05-28T09:06:18.534Z,98997.90
2023-05-28T09:12:44.777Z,98993.60
2023-05-28T09:19:03.516Z,98983.40
2023-05-28T09:25:52.315Z,98973.46
2023-05-28T09:31:33.633Z,98970.35
2023-05-28T09:36:46.284Z,98962.79
2023-05-28T09:42:21.525Z,98955.66
2023-05-28T09:47:28.793Z,98955.45
2023-05-28T09:54:32.445Z,98947.05
2023-05-28T10:01:08.186Z,98946.31
2023-05-28T10:07:30.626Z,98940.96
2023-05-28T10:13:51.804Z,98943.25
2023-05-28T10:20:13.621Z,98948.11
2023-05-28T10:25:46.150Z,98943.95
2023-05-28T10:31:33.223Z,98936.92
2023-05-28T10:37:03.213Z,98929.36
2023-05-28T10:42:43.024Z,98926.77
2023-05-28T10:48:01.350Z,98925.72
2023-05-28T10:53:23.464Z,98925.71
2023-05-28T10:58:51.648Z,98928.02
2023-05-28T11:04:57.647Z,98927.14
2023-05-28T11:10:32.659Z,98924.92
2023-05-28T11:15:47.961Z,98922.21
2023-05-28T11:21:21.871Z,98921.68
2023-05-28T11:26:32.362Z,98918.77
2023-05-28T11:32:03.462Z,98917.03
2023-05-28T11:38:45.370Z,98916.35
2023-05-28T11:45:24.544Z,98905.65
2023-05-28T11:51:52.096Z,98899.42
2023-05-28T11:58:53.677Z,98896.89
2023-05-28T12:05:15.682Z,98894.22
2023-05-28T12:11:40.433Z,98892.85
2023-05-28T12:17:48.324Z,98883.65
2023-05-28T12:23:34.096Z,98889.41
2023-05-28T12:30:14.966Z,98882.92
2023-05-28T12:36:22.889Z,98879.80
2023-05-28T12:42:31.245Z,98871.59
2023-05-28T12:48:18.192Z,98861.98
2023-05-28T12:53:46.955Z,98859.91
2023-05-28T12:59:37.551Z,98855.63
2023-05-28T13:05:14.149Z,98852.33
2023-05-28T13:10:31.166Z,98850.98
2023-05-28T13:15:37.611Z,98852.05
2023-05-28T13:20:39.718Z,98845.75
2023-05-28T13:25:44.197Z,98837.52
2023-05-28T13:31:00.121Z,98830.68
2023-05-28T13:36:45.962Z,98833.78
2023-05-28T13:42:11.494Z,98828.45
2023-05-28T13:48:13.536Z,98821.73
2023-05-28T13:54:38.515Z,98812.70
2023-05-28T14:01:00.805Z,98811.08
2023-05-28T14:06:52.139Z,98811.48
2023-05-28T14:13:36.034Z,98804.86
2023-05-28T14:18:52.241Z,98795.85
2023-05-28T14:24:19.565Z,98796.56
2023-05-28T14:29:21.534Z,98798.42
2023-05-28T14:34:23.452Z,98792.33
2023-05-28T14:39:41.510Z,98793.27
2023-05-28T14:45:14.694Z,98785.95
2023-05-28T14:51:23.177Z,98776.77
2023-05-28T14:57:07.502Z,98778.38
2023-05-28T15:02:52.672Z,98775.27
2023-05-28T15:08:29.902Z,98773.70
2023-05-28T15:13:32.330Z,98772.90
2023-05-28T15:18:45.337Z,98775.89
2023-05-28T15:25:00.570Z,98774.80
2023-05-28T15:31:22.074Z,98767.02
2023-05-28T15:37:43.618Z,98765.36
2023-05-28T15:44:08.939Z,98758.17
2023-05-28T15:50:55.297Z,98756.14
2023-05-28T15:56:42.543Z,98754.16
2023-05-28T16:02:54.712Z,98759.89
2023-05-28T16:09:16.037Z,98763.33
2023-05-28T16:15:57.931Z,98761.88
2023-05-28T16:22:19.387Z,98755.54
2023-05-28T16:28:43.081Z,98756.94
2023-05-28T16:35:04.469Z,98755.55
2023-05-28T16:41:28.934Z,98756.27
2023-05-28T16:46:56.484Z,98752.84
2023-05-28T16:52:48.848Z,98755.10
2023-05-28T16:58:57.723Z,98755.09
2023-05-28T17:05:26.364Z,98759.80
2023-05-28T17:11:47.960Z,98762.98
2023-05-28T17:18:11.239Z,98764.11
2023-05-28T17:24:32.897Z,98760.73
2023-05-28T17:30:46.921Z,98758.27
2023-05-28T17:37:14.261Z,98765.06
2023-05-28T17:42:35.807Z,98761.77
2023-05-28T17:47:58.227Z,98758.18
2023-05-28T17:53:14.903Z,98762.17
2023-05-28T17:58:41.943Z,98767.96
2023-05-28T18:03:43.691Z,98765.13
2023-05-28T18:08:47.801Z,98763.94
2023-05-28T18:14:35.126Z,98765.89
2023-05-28T18:20:17.369Z,98770.14
2023-05-28T18:25:40.878Z,98776.92
2023-05-28T18:31:28.656Z,98776.54
2023-05-28T18:37:17.828Z,98782.26
2023-05-28T18:42:36.768Z,98784.61
2023-05-28T18:47:40.389Z,98778.80
2023-05-28T18:52:47.895Z,98772.09
2023-05-28T18:57:53.587Z,98774.79
2023-05-28T19:04:11.064Z,98780.91
2023-05-28T19:09:50.588Z,98787.27
2023-05-28T19:15:00.873Z,98792.80
2023-05-28T19:20:36.263Z,98797.98
2023-05-28T19:25:41.070Z,98798.48
2023-05-28T19:31:00.609Z,98805.55
2023-05-28T19:36:33.107Z,98803.80
2023-05-28T19:42:42.643Z,98808.58
2023-05-28T19:48:31.033Z,98808.66
2023-05-28T19:59:08.349Z,98804.55
2023-05-28T20:04:15.632Z,98808.60
2023-05-28T20:09:22.123Z,98811.39
2023-05-28T20:14:27.300Z,98814.58
2023-05-28T20:19:53.375Z,98815.35
2023-05-28T20:25:46.960Z,98820.98
2023-05-28T20:30:51.937Z,98812.89
2023-05-28T20:36:56.918Z,98811.80
2023-05-28T20:43:23.198Z,98816.27
2023-05-28T20:50:05.898Z,98809.90
2023-05-28T20:57:07.731Z,98812.90
2023-05-28T21:03:13.948Z,98810.09
2023-05-28T21:09:50.891Z,98812.55
2023-05-28T21:16:13.089Z,98821.29
2023-05-28T21:22:27.270Z,98822.69
2023-05-28T21:29:09.318Z,98816.50
2023-05-28T21:36:02.677Z,98814.41
2023-05-28T21:42:08.954Z,98811.86
2023-05-28T21:48:56.929Z,98812.58
2023-05-28T21:55:25.949Z,98810.11
2023-05-28T22:01:22.884Z,98811.06
2023-05-28T22:07:28.160Z,98814.84
2023-05-28T22:13:41.978Z,98819.13
2023-05-28T22:20:44.987Z,98825.66
2023-05-28T22:26:27.989Z,98830.45
2023-05-28T22:32:38.282Z,98825.35
2023-05-28T22:39:23.781Z,98825.19
2023-05-28T22:46:06.875Z,98824.31
2023-05-28T22:52:17.641Z,98825.48
2023-05-28T22:58:55.342Z,98828.03
2023-05-28T23:05:58.067Z,98824.41
2023-05-28T23:12:27.270Z,98827.67
2023-05-28T23:19:22.429Z,98822.54
2023-05-28T23:25:32.184Z,98825.30
2023-05-28T23:32:35.153Z,98821.05
2023-05-28T23:39:31.685Z,98820.30
2023-05-28T23:46:24.713Z,98813.96
2023-05-28T23:53:21.479Z,98819.05
